sensor_id;sensor_type;location;lat;lon;timestamp;temperature;humidity
2062;DHT22;11070;51.336;12.340;2023-01-19T00:01:25;-2.70;1.00
2062;DHT22;11070;51.336;12.340;2023-01-19T00:03:51;-2.70;1.00
2062;DHT22;11070;51.336;12.340;2023-01-19T00:06:17;-2.70;1.00
2062;DHT22;11070;51.336;12.340;2023-01-19T00:08:43;-2.50;1.00
2062;DHT22;11070;51.336;12.340;2023-01-19T00:11:11;-2.50;99.90
2062;DHT22;11070;51.336;12.340;2023-01-19T00:13:38;-2.40;99.90
2062;DHT22;11070;51.336;12.340;2023-01-19T00:16:04;-2.40;99.90
2062;DHT22;11070;51.336;12.340;2023-01-19T00:18:30;-2.40;99.90
2062;DHT22;11070;51.336;12.340;2023-01-19T00:20:56;-2.40;99.90
2062;DHT22;11070;51.336;12.340;2023-01-19T00:23:22;-2.50;99.90
2062;DHT22;11070;51.336;12.340;2023-01-19T00:25:47;-2.50;99.90
2062;DHT22;11070;51.336;12.340;2023-01-19T00:28:16;-2.50;99.90
2062;DHT22;11070;51.336;12.340;2023-01-19T00:30:43;-2.60;1.00
2062;DHT22;11070;51.336;12.340;2023-01-19T00:33:10;-2.50;1.00
2062;DHT22;11070;51.336;12.340;2023-01-19T00:35:38;-2.60;1.00
2062;DHT22;11070;51.336;12.340;2023-01-19T00:38:03;-2.50;1.00
2062;DHT22;11070;51.336;12.340;2023-01-19T00:40:29;-2.50;1.00
2062;DHT22;11070;51.336;12.340;2023-01-19T00:42:55;-2.50;1.00
2062;DHT22;11070;51.336;12.340;2023-01-19T00:45:22;-2.50;99.90
2062;DHT22;11070;51.336;12.340;2023-01-19T00:47:49;-2.40;99.90
2062;DHT22;11070;51.336;12.340;2023-01-19T00:50:22;-2.50;99.90
2062;DHT22;11070;51.336;12.340;2023-01-19T00:52:48;-2.50;99.90
2062;DHT22;11070;51.336;12.340;2023-01-19T00:55:14;-2.50;1.00
2062;DHT22;11070;51.336;12.340;2023-01-19T00:57:41;-2.50;1.00
2062;DHT22;11070;51.336;12.340;2023-01-19T01:00:16;-2.40;1.00
2062;DHT22;11070;51.336;12.340;2023-01-19T01:02:44;-2.50;1.00
2062;DHT22;11070;51.336;12.340;2023-01-19T01:05:11;-2.50;1.00
2062;DHT22;11070;51.336;12.340;2023-01-19T01:07:37;-2.50;1.00
2062;DHT22;11070;51.336;12.340;2023-01-19T01:12:39;-2.60;1.00
2062;DHT22;11070;51.336;12.340;2023-01-19T01:15:07;-2.70;1.00
2062;DHT22;11070;51.336;12.340;2023-01-19T01:17:33;-2.70;1.00
2062;DHT22;11070;51.336;12.340;2023-01-19T01:19:59;-2.80;1.00
2062;DHT22;11070;51.336;12.340;2023-01-19T01:22:25;-2.90;1.00
2062;DHT22;11070;51.336;12.340;2023-01-19T01:24:50;-2.90;1.00
2062;DHT22;11070;51.336;12.340;2023-01-19T01:27:16;-2.90;1.00
2062;DHT22;11070;51.336;12.340;2023-01-19T01:29:42;-2.90;1.00
2062;DHT22;11070;51.336;12.340;2023-01-19T01:32:12;-3.00;1.00
2062;DHT22;11070;51.336;12.340;2023-01-19T01:34:37;-3.00;1.00
2062;DHT22;11070;51.336;12.340;2023-01-19T01:37:04;-3.00;1.00
2062;DHT22;11070;51.336;12.340;2023-01-19T01:39:34;-3.10;1.00
2062;DHT22;11070;51.336;12.340;2023-01-19T01:41:59;-3.00;1.00
2062;DHT22;11070;51.336;12.340;2023-01-19T01:44:49;-3.00;1.00
2062;DHT22;11070;51.336;12.340;2023-01-19T01:47:19;-3.00;1.00
2062;DHT22;11070;51.336;12.340;2023-01-19T01:49:46;-3.10;1.00
2062;DHT22;11070;51.336;12.340;2023-01-19T01:52:13;-3.10;1.00
2062;DHT22;11070;51.336;12.340;2023-01-19T01:54:41;-3.10;1.00
2062;DHT22;11070;51.336;12.340;2023-01-19T01:57:07;-3.00;1.00
2062;DHT22;11070;51.336;12.340;2023-01-19T01:59:39;-3.00;1.00
2062;DHT22;11070;51.336;12.340;2023-01-19T02:02:11;-3.00;99.90
2062;DHT22;11070;51.336;12.340;2023-01-19T02:05:02;-2.90;1.00
2062;DHT22;11070;51.336;12.340;2023-01-19T02:10:25;-3.00;1.00
2062;DHT22;11070;51.336;12.340;2023-01-19T02:13:09;-3.10;1.00
2062;DHT22;11070;51.336;12.340;2023-01-19T02:15:52;-3.20;1.00
2062;DHT22;11070;51.336;12.340;2023-01-19T02:18:20;-3.20;1.00
2062;DHT22;11070;51.336;12.340;2023-01-19T02:23:54;-3.20;99.90
2062;DHT22;11070;51.336;12.340;2023-01-19T02:26:37;-3.20;1.00
2062;DHT22;11070;51.336;12.340;2023-01-19T02:29:08;-3.30;1.00
2062;DHT22;11070;51.336;12.340;2023-01-19T02:31:36;-3.30;1.00
2062;DHT22;11070;51.336;12.340;2023-01-19T02:34:05;-3.30;1.00
2062;DHT22;11070;51.336;12.340;2023-01-19T02:36:55;-3.30;1.00
2062;DHT22;11070;51.336;12.340;2023-01-19T02:39:33;-3.40;1.00
2062;DHT22;11070;51.336;12.340;2023-01-19T02:42:06;-3.40;1.00
2062;DHT22;11070;51.336;12.340;2023-01-19T02:44:34;-3.30;1.00
2062;DHT22;11070;51.336;12.340;2023-01-19T02:47:01;-3.30;99.90
2062;DHT22;11070;51.336;12.340;2023-01-19T02:49:28;-3.20;99.90
2062;DHT22;11070;51.336;12.340;2023-01-19T02:51:57;-3.20;99.90
2062;DHT22;11070;51.336;12.340;2023-01-19T03:11:00;-3.40;99.90
2062;DHT22;11070;51.336;12.340;2023-01-19T03:16:10;-3.40;99.90
2062;DHT22;11070;51.336;12.340;2023-01-19T03:18:39;-3.40;99.90
2062;DHT22;11070;51.336;12.340;2023-01-19T03:21:08;-3.40;1.00
2062;DHT22;11070;51.336;12.340;2023-01-19T03:23:37;-3.40;99.90
2062;DHT22;11070;51.336;12.340;2023-01-19T03:26:08;-3.40;99.90
2062;DHT22;11070;51.336;12.340;2023-01-19T03:28:38;-3.40;1.00
2062;DHT22;11070;51.336;12.340;2023-01-19T03:31:12;-3.40;1.00
2062;DHT22;11070;51.336;12.340;2023-01-19T03:33:40;-3.40;99.90
2062;DHT22;11070;51.336;12.340;2023-01-19T03:36:11;-3.40;1.00
2062;DHT22;11070;51.336;12.340;2023-01-19T03:38:40;-3.40;1.00
2062;DHT22;11070;51.336;12.340;2023-01-19T03:41:11;-3.40;99.90
2062;DHT22;11070;51.336;12.340;2023-01-19T03:43:38;-3.40;1.00
2062;DHT22;11070;51.336;12.340;2023-01-19T03:46:05;-3.40;1.00
2062;DHT22;11070;51.336;12.340;2023-01-19T03:48:32;-3.40;1.00
2062;DHT22;11070;51.336;12.340;2023-01-19T03:51:03;-3.40;1.00
2062;DHT22;11070;51.336;12.340;2023-01-19T03:53:29;-3.40;99.90
2062;DHT22;11070;51.336;12.340;2023-01-19T03:55:55;-3.40;94.20
2062;DHT22;11070;51.336;12.340;2023-01-19T03:58:20;-3.50;99.90
2062;DHT22;11070;51.336;12.340;2023-01-19T04:00:46;-3.50;99.90
2062;DHT22;11070;51.336;12.340;2023-01-19T04:03:14;-3.50;1.00
2062;DHT22;11070;51.336;12.340;2023-01-19T04:05:40;-3.50;99.90
2062;DHT22;11070;51.336;12.340;2023-01-19T04:08:06;-3.60;1.00
2062;DHT22;11070;51.336;12.340;2023-01-19T04:10:32;-3.60;1.00
2062;DHT22;11070;51.336;12.340;2023-01-19T04:12:58;-3.60;1.00
2062;DHT22;11070;51.336;12.340;2023-01-19T04:15:25;-3.70;11.40
2062;DHT22;11070;51.336;12.340;2023-01-19T04:17:51;-3.70;99.90
2062;DHT22;11070;51.336;12.340;2023-01-19T04:20:16;-3.70;99.90
2062;DHT22;11070;51.336;12.340;2023-01-19T04:22:42;-3.80;1.00
2062;DHT22;11070;51.336;12.340;2023-01-19T04:25:08;-3.80;1.00
2062;DHT22;11070;51.336;12.340;2023-01-19T04:27:35;-3.80;1.00
2062;DHT22;11070;51.336;12.340;2023-01-19T04:30:01;-3.90;24.80
2062;DHT22;11070;51.336;12.340;2023-01-19T04:32:28;-3.90;3.00
2062;DHT22;11070;51.336;12.340;2023-01-19T04:34:54;-3.90;1.00
2062;DHT22;11070;51.336;12.340;2023-01-19T04:37:20;-3.90;1.00
2062;DHT22;11070;51.336;12.340;2023-01-19T04:39:46;-3.90;1.00
2062;DHT22;11070;51.336;12.340;2023-01-19T04:42:12;-3.90;1.00
2062;DHT22;11070;51.336;12.340;2023-01-19T04:44:38;-4.00;1.00
2062;DHT22;11070;51.336;12.340;2023-01-19T04:47:03;-4.00;1.00
2062;DHT22;11070;51.336;12.340;2023-01-19T04:49:29;-4.00;1.00
2062;DHT22;11070;51.336;12.340;2023-01-19T04:51:55;-4.00;1.00
2062;DHT22;11070;51.336;12.340;2023-01-19T04:54:21;-4.00;99.90
2062;DHT22;11070;51.336;12.340;2023-01-19T04:56:47;-4.10;99.90
2062;DHT22;11070;51.336;12.340;2023-01-19T04:59:13;-4.10;1.00
2062;DHT22;11070;51.336;12.340;2023-01-19T05:01:39;-4.00;1.00
2062;DHT22;11070;51.336;12.340;2023-01-19T05:04:04;-4.00;1.00
2062;DHT22;11070;51.336;12.340;2023-01-19T05:06:32;-3.90;1.00
2062;DHT22;11070;51.336;12.340;2023-01-19T05:08:58;-3.90;1.00
2062;DHT22;11070;51.336;12.340;2023-01-19T05:11:23;-3.90;1.00
2062;DHT22;11070;51.336;12.340;2023-01-19T05:13:49;-3.90;1.00
2062;DHT22;11070;51.336;12.340;2023-01-19T05:16:15;-3.90;1.00
2062;DHT22;11070;51.336;12.340;2023-01-19T05:18:40;-3.90;1.00
2062;DHT22;11070;51.336;12.340;2023-01-19T05:21:06;-4.00;1.00
2062;DHT22;11070;51.336;12.340;2023-01-19T05:23:35;-4.10;47.30
2062;DHT22;11070;51.336;12.340;2023-01-19T05:26:01;-4.10;99.90
2062;DHT22;11070;51.336;12.340;2023-01-19T05:28:31;-4.20;99.90
2062;DHT22;11070;51.336;12.340;2023-01-19T05:30:57;-4.20;99.90
2062;DHT22;11070;51.336;12.340;2023-01-19T05:33:23;-4.20;99.90
2062;DHT22;11070;51.336;12.340;2023-01-19T05:35:50;-4.20;1.00
2062;DHT22;11070;51.336;12.340;2023-01-19T05:38:16;-4.20;1.00
2062;DHT22;11070;51.336;12.340;2023-01-19T05:40:42;-4.20;1.00
2062;DHT22;11070;51.336;12.340;2023-01-19T05:43:08;-4.20;1.00
2062;DHT22;11070;51.336;12.340;2023-01-19T05:45:33;-4.20;1.00
2062;DHT22;11070;51.336;12.340;2023-01-19T05:47:59;-4.10;1.00
2062;DHT22;11070;51.336;12.340;2023-01-19T05:50:25;-4.10;1.00
2062;DHT22;11070;51.336;12.340;2023-01-19T05:52:51;-4.10;1.00
2062;DHT22;11070;51.336;12.340;2023-01-19T05:55:20;-4.20;1.00
2062;DHT22;11070;51.336;12.340;2023-01-19T05:57:46;-4.10;1.00
2062;DHT22;11070;51.336;12.340;2023-01-19T06:00:12;-4.00;1.00
2062;DHT22;11070;51.336;12.340;2023-01-19T06:02:38;-3.90;1.00
2062;DHT22;11070;51.336;12.340;2023-01-19T06:05:04;-3.90;1.00
2062;DHT22;11070;51.336;12.340;2023-01-19T06:07:30;-3.80;1.00
2062;DHT22;11070;51.336;12.340;2023-01-19T06:09:56;-3.70;1.00
2062;DHT22;11070;51.336;12.340;2023-01-19T06:12:22;-3.70;1.00
2062;DHT22;11070;51.336;12.340;2023-01-19T06:14:48;-3.70;99.90
2062;DHT22;11070;51.336;12.340;2023-01-19T06:17:14;-3.60;99.90
2062;DHT22;11070;51.336;12.340;2023-01-19T06:19:39;-3.60;99.90
2062;DHT22;11070;51.336;12.340;2023-01-19T06:22:06;-3.60;99.90
2062;DHT22;11070;51.336;12.340;2023-01-19T06:24:32;-3.70;99.90
2062;DHT22;11070;51.336;12.340;2023-01-19T06:26:57;-3.70;99.90
2062;DHT22;11070;51.336;12.340;2023-01-19T06:29:25;-3.80;99.90
2062;DHT22;11070;51.336;12.340;2023-01-19T06:31:51;-3.80;99.90
2062;DHT22;11070;51.336;12.340;2023-01-19T06:34:17;-3.90;99.90
2062;DHT22;11070;51.336;12.340;2023-01-19T06:36:43;-3.90;99.90
2062;DHT22;11070;51.336;12.340;2023-01-19T06:39:09;-3.90;1.00
2062;DHT22;11070;51.336;12.340;2023-01-19T06:41:35;-3.90;1.00
2062;DHT22;11070;51.336;12.340;2023-01-19T06:44:01;-3.80;1.00
2062;DHT22;11070;51.336;12.340;2023-01-19T06:46:27;-3.80;1.00
2062;DHT22;11070;51.336;12.340;2023-01-19T06:48:53;-3.70;1.00
2062;DHT22;11070;51.336;12.340;2023-01-19T06:51:20;-3.70;1.00
2062;DHT22;11070;51.336;12.340;2023-01-19T06:53:45;-3.60;1.00
2062;DHT22;11070;51.336;12.340;2023-01-19T06:56:11;-3.50;1.00
2062;DHT22;11070;51.336;12.340;2023-01-19T06:58:37;-3.50;1.00
2062;DHT22;11070;51.336;12.340;2023-01-19T07:01:06;-3.50;1.00
2062;DHT22;11070;51.336;12.340;2023-01-19T07:03:33;-3.50;99.90
2062;DHT22;11070;51.336;12.340;2023-01-19T07:05:59;-3.50;99.90
2062;DHT22;11070;51.336;12.340;2023-01-19T07:08:30;-3.50;99.90
2062;DHT22;11070;51.336;12.340;2023-01-19T07:11:03;-3.50;99.90
2062;DHT22;11070;51.336;12.340;2023-01-19T07:13:31;-3.40;99.90
2062;DHT22;11070;51.336;12.340;2023-01-19T07:15:57;-3.50;99.90
2062;DHT22;11070;51.336;12.340;2023-01-19T07:18:23;-3.50;99.90
2062;DHT22;11070;51.336;12.340;2023-01-19T07:20:49;-3.40;99.90
2062;DHT22;11070;51.336;12.340;2023-01-19T07:23:15;-3.40;99.90
2062;DHT22;11070;51.336;12.340;2023-01-19T07:25:44;-3.30;99.90
2062;DHT22;11070;51.336;12.340;2023-01-19T07:28:10;-3.10;99.90
2062;DHT22;11070;51.336;12.340;2023-01-19T07:30:40;-2.80;99.90
2062;DHT22;11070;51.336;12.340;2023-01-19T07:33:05;-2.30;1.00
2062;DHT22;11070;51.336;12.340;2023-01-19T07:35:31;-1.90;33.60
2062;DHT22;11070;51.336;12.340;2023-01-19T07:37:57;-1.80;1.00
2062;DHT22;11070;51.336;12.340;2023-01-19T07:40:23;-1.80;1.00
2062;DHT22;11070;51.336;12.340;2023-01-19T07:42:49;-1.60;99.90
2062;DHT22;11070;51.336;12.340;2023-01-19T07:45:17;-1.70;1.00
2062;DHT22;11070;51.336;12.340;2023-01-19T07:47:47;-1.60;99.90
2062;DHT22;11070;51.336;12.340;2023-01-19T07:50:14;-1.40;1.00
2062;DHT22;11070;51.336;12.340;2023-01-19T07:52:40;-0.90;1.00
2062;DHT22;11070;51.336;12.340;2023-01-19T07:55:07;-0.40;99.90
2062;DHT22;11070;51.336;12.340;2023-01-19T07:57:33;-0.20;1.00
2062;DHT22;11070;51.336;12.340;2023-01-19T07:59:59;0.00;1.00
2062;DHT22;11070;51.336;12.340;2023-01-19T08:02:24;0.00;1.00
2062;DHT22;11070;51.336;12.340;2023-01-19T08:04:50;0.20;1.00
2062;DHT22;11070;51.336;12.340;2023-01-19T08:07:16;0.50;1.00
2062;DHT22;11070;51.336;12.340;2023-01-19T08:09:42;0.90;1.00
2062;DHT22;11070;51.336;12.340;2023-01-19T08:12:07;1.30;1.00
2062;DHT22;11070;51.336;12.340;2023-01-19T08:14:33;1.40;1.00
2062;DHT22;11070;51.336;12.340;2023-01-19T08:17:00;1.40;1.00
2062;DHT22;11070;51.336;12.340;2023-01-19T08:19:25;0.60;1.00
2062;DHT22;11070;51.336;12.340;2023-01-19T08:21:52;0.90;1.00
2062;DHT22;11070;51.336;12.340;2023-01-19T08:24:19;0.50;1.00
2062;DHT22;11070;51.336;12.340;2023-01-19T08:26:46;0.70;1.00
2062;DHT22;11070;51.336;12.340;2023-01-19T08:29:12;1.00;1.00
2062;DHT22;11070;51.336;12.340;2023-01-19T08:31:38;1.40;1.00
2062;DHT22;11070;51.336;12.340;2023-01-19T08:34:04;1.60;1.00
2062;DHT22;11070;51.336;12.340;2023-01-19T08:36:30;1.40;1.00
2062;DHT22;11070;51.336;12.340;2023-01-19T08:38:55;1.60;1.00
2062;DHT22;11070;51.336;12.340;2023-01-19T08:41:21;1.80;1.00
2062;DHT22;11070;51.336;12.340;2023-01-19T08:43:47;1.80;1.00
2062;DHT22;11070;51.336;12.340;2023-01-19T08:46:14;1.60;1.00
2062;DHT22;11070;51.336;12.340;2023-01-19T08:48:46;1.70;1.00
2062;DHT22;11070;51.336;12.340;2023-01-19T08:51:16;1.70;1.00
2062;DHT22;11070;51.336;12.340;2023-01-19T08:53:42;1.60;1.00
2062;DHT22;11070;51.336;12.340;2023-01-19T08:56:09;1.80;1.00
2062;DHT22;11070;51.336;12.340;2023-01-19T08:58:42;1.90;1.00
2062;DHT22;11070;51.336;12.340;2023-01-19T09:01:09;2.40;1.00
2062;DHT22;11070;51.336;12.340;2023-01-19T09:03:36;2.70;1.00
2062;DHT22;11070;51.336;12.340;2023-01-19T09:06:05;3.40;1.00
2062;DHT22;11070;51.336;12.340;2023-01-19T09:08:31;4.20;99.90
2062;DHT22;11070;51.336;12.340;2023-01-19T09:10:57;4.50;99.90
2062;DHT22;11070;51.336;12.340;2023-01-19T09:13:23;4.20;99.90
2062;DHT22;11070;51.336;12.340;2023-01-19T09:15:49;3.60;99.90
2062;DHT22;11070;51.336;12.340;2023-01-19T09:18:17;3.30;99.90
2062;DHT22;11070;51.336;12.340;2023-01-19T09:20:44;3.70;99.90
2062;DHT22;11070;51.336;12.340;2023-01-19T09:23:11;4.20;99.90
2062;DHT22;11070;51.336;12.340;2023-01-19T09:25:39;4.20;99.90
2062;DHT22;11070;51.336;12.340;2023-01-19T09:28:05;4.10;99.90
2062;DHT22;11070;51.336;12.340;2023-01-19T09:30:32;3.60;99.90
2062;DHT22;11070;51.336;12.340;2023-01-19T09:33:18;3.80;99.90
2062;DHT22;11070;51.336;12.340;2023-01-19T09:35:45;4.60;99.90
2062;DHT22;11070;51.336;12.340;2023-01-19T09:38:12;4.80;99.90
2062;DHT22;11070;51.336;12.340;2023-01-19T09:40:48;5.10;99.90
2062;DHT22;11070;51.336;12.340;2023-01-19T09:43:34;4.60;99.90
2062;DHT22;11070;51.336;12.340;2023-01-19T09:46:09;4.30;99.90
2062;DHT22;11070;51.336;12.340;2023-01-19T09:51:15;5.60;99.90
2062;DHT22;11070;51.336;12.340;2023-01-19T09:56:18;6.30;99.90
2062;DHT22;11070;51.336;12.340;2023-01-19T09:58:45;5.80;99.90
2062;DHT22;11070;51.336;12.340;2023-01-19T10:01:20;4.90;99.90
2062;DHT22;11070;51.336;12.340;2023-01-19T10:03:53;4.70;99.90
2062;DHT22;11070;51.336;12.340;2023-01-19T10:06:24;4.20;99.90
2062;DHT22;11070;51.336;12.340;2023-01-19T10:11:50;3.10;1.00
2062;DHT22;11070;51.336;12.340;2023-01-19T10:14:28;2.90;1.00
2062;DHT22;11070;51.336;12.340;2023-01-19T10:19:50;3.50;1.00
2062;DHT22;11070;51.336;12.340;2023-01-19T10:22:20;3.60;99.90
2062;DHT22;11070;51.336;12.340;2023-01-19T10:24:51;4.20;99.90
2062;DHT22;11070;51.336;12.340;2023-01-19T10:27:22;4.10;99.90
2062;DHT22;11070;51.336;12.340;2023-01-19T10:29:48;4.30;99.90
2062;DHT22;11070;51.336;12.340;2023-01-19T10:32:16;4.60;99.90
2062;DHT22;11070;51.336;12.340;2023-01-19T10:34:44;5.10;99.90
2062;DHT22;11070;51.336;12.340;2023-01-19T10:39:45;5.70;99.90
2062;DHT22;11070;51.336;12.340;2023-01-19T10:42:14;5.90;99.90
2062;DHT22;11070;51.336;12.340;2023-01-19T10:44:41;5.50;99.90
2062;DHT22;11070;51.336;12.340;2023-01-19T10:47:18;5.70;99.90
2062;DHT22;11070;51.336;12.340;2023-01-19T10:49:44;5.50;99.90
2062;DHT22;11070;51.336;12.340;2023-01-19T10:52:33;5.10;99.90
2062;DHT22;11070;51.336;12.340;2023-01-19T10:55:04;5.00;99.90
2062;DHT22;11070;51.336;12.340;2023-01-19T10:57:34;4.80;99.90
2062;DHT22;11070;51.336;12.340;2023-01-19T11:00:04;5.40;99.90
2062;DHT22;11070;51.336;12.340;2023-01-19T11:02:30;5.50;99.90
2062;DHT22;11070;51.336;12.340;2023-01-19T11:05:20;5.50;99.90
2062;DHT22;11070;51.336;12.340;2023-01-19T11:07:46;6.20;99.90
2062;DHT22;11070;51.336;12.340;2023-01-19T11:12:41;6.30;99.90
2062;DHT22;11070;51.336;12.340;2023-01-19T11:17:53;6.50;99.90
2062;DHT22;11070;51.336;12.340;2023-01-19T11:20:29;7.20;99.90
2062;DHT22;11070;51.336;12.340;2023-01-19T11:28:20;5.20;99.90
2062;DHT22;11070;51.336;12.340;2023-01-19T11:30:57;5.20;99.90
2062;DHT22;11070;51.336;12.340;2023-01-19T11:33:27;5.20;99.90
2062;DHT22;11070;51.336;12.340;2023-01-19T11:36:17;5.60;99.90
2062;DHT22;11070;51.336;12.340;2023-01-19T11:38:47;5.40;99.90
2062;DHT22;11070;51.336;12.340;2023-01-19T11:41:17;5.40;99.90
2062;DHT22;11070;51.336;12.340;2023-01-19T11:43:45;5.70;99.90
2062;DHT22;11070;51.336;12.340;2023-01-19T11:46:13;5.70;99.90
2062;DHT22;11070;51.336;12.340;2023-01-19T11:48:44;5.90;99.90
2062;DHT22;11070;51.336;12.340;2023-01-19T11:51:15;5.00;99.90
2062;DHT22;11070;51.336;12.340;2023-01-19T11:53:45;4.80;99.90
2062;DHT22;11070;51.336;12.340;2023-01-19T11:56:13;5.10;99.90
2062;DHT22;11070;51.336;12.340;2023-01-19T11:58:44;4.90;99.90
2062;DHT22;11070;51.336;12.340;2023-01-19T12:01:22;4.40;99.90
2062;DHT22;11070;51.336;12.340;2023-01-19T12:04:11;4.50;99.90
2062;DHT22;11070;51.336;12.340;2023-01-19T12:06:43;5.00;99.90
2062;DHT22;11070;51.336;12.340;2023-01-19T12:09:35;5.70;99.90
2062;DHT22;11070;51.336;12.340;2023-01-19T12:12:12;6.40;99.90
2062;DHT22;11070;51.336;12.340;2023-01-19T12:14:40;7.10;99.90
2062;DHT22;11070;51.336;12.340;2023-01-19T12:17:23;6.10;99.90
2062;DHT22;11070;51.336;12.340;2023-01-19T12:19:55;6.30;99.90
2062;DHT22;11070;51.336;12.340;2023-01-19T12:22:26;6.90;99.90
2062;DHT22;11070;51.336;12.340;2023-01-19T12:27:43;6.60;99.90
2062;DHT22;11070;51.336;12.340;2023-01-19T12:30:37;6.50;99.90
2062;DHT22;11070;51.336;12.340;2023-01-19T12:33:22;5.80;99.90
2062;DHT22;11070;51.336;12.340;2023-01-19T12:36:08;6.40;99.90
2062;DHT22;11070;51.336;12.340;2023-01-19T12:41:38;6.20;99.90
2062;DHT22;11070;51.336;12.340;2023-01-19T12:46:42;7.20;99.90
2062;DHT22;11070;51.336;12.340;2023-01-19T12:49:26;7.60;99.90
2062;DHT22;11070;51.336;12.340;2023-01-19T12:59:59;6.40;99.90
2062;DHT22;11070;51.336;12.340;2023-01-19T13:21:45;3.10;1.00
2062;DHT22;11070;51.336;12.340;2023-01-19T13:24:19;3.00;1.00
2062;DHT22;11070;51.336;12.340;2023-01-19T13:29:34;2.70;1.00
2062;DHT22;11070;51.336;12.340;2023-01-19T13:32:17;2.60;1.00
2062;DHT22;11070;51.336;12.340;2023-01-19T13:34:48;2.40;1.00
2062;DHT22;11070;51.336;12.340;2023-01-19T13:37:21;2.50;1.00
2062;DHT22;11070;51.336;12.340;2023-01-19T13:39:50;2.30;1.00
2062;DHT22;11070;51.336;12.340;2023-01-19T13:44:52;2.20;1.00
2062;DHT22;11070;51.336;12.340;2023-01-19T13:47:22;2.10;1.00
2062;DHT22;11070;51.336;12.340;2023-01-19T13:49:53;2.00;1.00
2062;DHT22;11070;51.336;12.340;2023-01-19T13:52:28;2.00;1.00
2062;DHT22;11070;51.336;12.340;2023-01-19T13:54:58;2.10;1.00
2062;DHT22;11070;51.336;12.340;2023-01-19T14:02:37;1.90;15.60
2062;DHT22;11070;51.336;12.340;2023-01-19T14:05:20;2.00;1.00
2062;DHT22;11070;51.336;12.340;2023-01-19T14:10:25;1.90;1.00
2062;DHT22;11070;51.336;12.340;2023-01-19T14:13:02;1.90;1.00
2062;DHT22;11070;51.336;12.340;2023-01-19T14:15:31;1.90;1.00
2062;DHT22;11070;51.336;12.340;2023-01-19T14:21:17;1.80;1.00
2062;DHT22;11070;51.336;12.340;2023-01-19T14:23:53;1.80;5.20
2062;DHT22;11070;51.336;12.340;2023-01-19T14:26:46;1.90;18.40
2062;DHT22;11070;51.336;12.340;2023-01-19T14:29:30;1.90;1.00
2062;DHT22;11070;51.336;12.340;2023-01-19T14:32:20;1.90;1.00
2062;DHT22;11070;51.336;12.340;2023-01-19T14:37:35;1.90;1.00
2062;DHT22;11070;51.336;12.340;2023-01-19T14:42:54;2.00;1.00
2062;DHT22;11070;51.336;12.340;2023-01-19T14:45:31;2.00;1.00
2062;DHT22;11070;51.336;12.340;2023-01-19T14:48:18;2.00;1.00
2062;DHT22;11070;51.336;12.340;2023-01-19T14:50:47;1.90;4.50
2062;DHT22;11070;51.336;12.340;2023-01-19T14:53:20;1.90;51.80
2062;DHT22;11070;51.336;12.340;2023-01-19T14:55:51;1.90;7.30
2062;DHT22;11070;51.336;12.340;2023-01-19T14:58:21;1.90;1.00
2062;DHT22;11070;51.336;12.340;2023-01-19T15:00:48;1.90;32.90
2062;DHT22;11070;51.336;12.340;2023-01-19T15:03:14;1.80;79.90
2062;DHT22;11070;51.336;12.340;2023-01-19T15:05:45;1.80;33.40
2062;DHT22;11070;51.336;12.340;2023-01-19T15:08:31;1.80;1.00
2062;DHT22;11070;51.336;12.340;2023-01-19T15:11:01;1.80;13.40
2062;DHT22;11070;51.336;12.340;2023-01-19T15:13:30;1.70;1.00
2062;DHT22;11070;51.336;12.340;2023-01-19T15:15:56;1.70;32.20
2062;DHT22;11070;51.336;12.340;2023-01-19T15:18:24;1.70;22.90
2062;DHT22;11070;51.336;12.340;2023-01-19T15:20:53;1.70;55.50
2062;DHT22;11070;51.336;12.340;2023-01-19T15:23:19;1.60;63.80
2062;DHT22;11070;51.336;12.340;2023-01-19T15:25:45;1.60;96.40
2062;DHT22;11070;51.336;12.340;2023-01-19T15:28:13;1.60;99.90
2062;DHT22;11070;51.336;12.340;2023-01-19T15:30:39;1.60;99.90
2062;DHT22;11070;51.336;12.340;2023-01-19T15:33:05;1.60;99.90
2062;DHT22;11070;51.336;12.340;2023-01-19T15:35:30;1.60;94.60
2062;DHT22;11070;51.336;12.340;2023-01-19T15:37:56;1.50;84.80
2062;DHT22;11070;51.336;12.340;2023-01-19T15:40:22;1.50;99.90
2062;DHT22;11070;51.336;12.340;2023-01-19T15:42:48;1.50;99.90
2062;DHT22;11070;51.336;12.340;2023-01-19T15:45:34;1.50;99.90
2062;DHT22;11070;51.336;12.340;2023-01-19T15:48:05;1.50;99.90
2062;DHT22;11070;51.336;12.340;2023-01-19T15:50:32;1.40;99.90
2062;DHT22;11070;51.336;12.340;2023-01-19T15:52:58;1.40;99.90
2062;DHT22;11070;51.336;12.340;2023-01-19T15:55:24;1.40;99.90
2062;DHT22;11070;51.336;12.340;2023-01-19T15:57:49;1.40;99.90
2062;DHT22;11070;51.336;12.340;2023-01-19T16:00:15;1.50;99.90
2062;DHT22;11070;51.336;12.340;2023-01-19T16:02:41;1.50;99.90
2062;DHT22;11070;51.336;12.340;2023-01-19T16:05:07;1.50;99.90
2062;DHT22;11070;51.336;12.340;2023-01-19T16:07:33;1.50;99.90
2062;DHT22;11070;51.336;12.340;2023-01-19T16:09:59;1.50;99.90
2062;DHT22;11070;51.336;12.340;2023-01-19T16:12:25;1.50;99.90
2062;DHT22;11070;51.336;12.340;2023-01-19T16:14:52;1.50;99.90
2062;DHT22;11070;51.336;12.340;2023-01-19T16:17:18;1.50;99.90
2062;DHT22;11070;51.336;12.340;2023-01-19T16:19:44;1.50;99.90
2062;DHT22;11070;51.336;12.340;2023-01-19T16:22:10;1.50;99.90
2062;DHT22;11070;51.336;12.340;2023-01-19T16:24:36;1.50;99.90
2062;DHT22;11070;51.336;12.340;2023-01-19T16:27:01;1.50;1.00
2062;DHT22;11070;51.336;12.340;2023-01-19T16:29:29;1.50;1.00
2062;DHT22;11070;51.336;12.340;2023-01-19T16:31:55;1.50;1.00
2062;DHT22;11070;51.336;12.340;2023-01-19T16:34:20;1.50;1.00
2062;DHT22;11070;51.336;12.340;2023-01-19T16:36:49;1.40;1.00
2062;DHT22;11070;51.336;12.340;2023-01-19T16:39:15;1.40;1.00
2062;DHT22;11070;51.336;12.340;2023-01-19T16:41:42;1.40;1.00
2062;DHT22;11070;51.336;12.340;2023-01-19T16:44:10;1.40;1.00
2062;DHT22;11070;51.336;12.340;2023-01-19T16:46:38;1.40;1.00
2062;DHT22;11070;51.336;12.340;2023-01-19T16:49:16;1.40;1.00
2062;DHT22;11070;51.336;12.340;2023-01-19T16:51:42;1.40;1.00
2062;DHT22;11070;51.336;12.340;2023-01-19T16:54:15;1.40;1.00
2062;DHT22;11070;51.336;12.340;2023-01-19T16:56:42;1.40;1.00
2062;DHT22;11070;51.336;12.340;2023-01-19T16:59:10;1.40;1.00
2062;DHT22;11070;51.336;12.340;2023-01-19T17:01:36;1.40;99.90
2062;DHT22;11070;51.336;12.340;2023-01-19T17:04:03;1.40;99.90
2062;DHT22;11070;51.336;12.340;2023-01-19T17:06:29;1.40;99.90
2062;DHT22;11070;51.336;12.340;2023-01-19T17:08:56;1.40;99.90
2062;DHT22;11070;51.336;12.340;2023-01-19T17:11:24;1.40;99.90
2062;DHT22;11070;51.336;12.340;2023-01-19T17:13:55;1.40;1.00
2062;DHT22;11070;51.336;12.340;2023-01-19T17:16:25;1.40;1.00
2062;DHT22;11070;51.336;12.340;2023-01-19T17:18:52;1.40;1.00
2062;DHT22;11070;51.336;12.340;2023-01-19T17:21:18;1.40;1.00
2062;DHT22;11070;51.336;12.340;2023-01-19T17:23:45;1.40;1.00
2062;DHT22;11070;51.336;12.340;2023-01-19T17:26:11;1.40;1.00
2062;DHT22;11070;51.336;12.340;2023-01-19T17:28:37;1.40;1.00
2062;DHT22;11070;51.336;12.340;2023-01-19T17:31:23;1.40;99.90
2062;DHT22;11070;51.336;12.340;2023-01-19T17:33:49;1.40;99.90
2062;DHT22;11070;51.336;12.340;2023-01-19T17:36:18;1.40;99.90
2062;DHT22;11070;51.336;12.340;2023-01-19T17:38:48;1.40;1.00
2062;DHT22;11070;51.336;12.340;2023-01-19T17:41:22;1.40;1.00
2062;DHT22;11070;51.336;12.340;2023-01-19T17:43:49;1.40;1.00
2062;DHT22;11070;51.336;12.340;2023-01-19T17:46:16;1.50;1.00
2062;DHT22;11070;51.336;12.340;2023-01-19T17:48:42;1.50;1.00